createdAt,value
2019-03-01T00:00:09.701Z,31.73
2019-03-01T00:03:32.336Z,31.00
2019-03-01T00:07:36.598Z,31.40
2019-03-01T00:11:41.809Z,30.70
2019-03-01T00:15:28.917Z,31.30
2019-03-01T00:19:07.447Z,29.57
2019-03-01T00:22:47.299Z,30.07
2019-03-01T00:26:31.808Z,29.80
2019-03-01T00:30:26.149Z,29.80
2019-03-01T00:34:26.838Z,29.90
2019-03-01T00:38:33.178Z,29.30
2019-03-01T00:42:23.568Z,30.03
2019-03-01T00:45:45.739Z,30.93
2019-03-01T00:49:08.330Z,32.43
2019-03-01T00:52:30.837Z,31.97
2019-03-01T00:55:53.421Z,31.57
2019-03-01T00:59:15.952Z,33.57
2019-03-01T01:02:38.839Z,33.77
2019-03-01T01:06:01.157Z,35.80
2019-03-01T01:09:23.868Z,35.00
2019-03-01T01:12:46.833Z,37.10
2019-03-01T01:16:09.159Z,33.63
2019-03-01T01:19:31.821Z,31.67
2019-03-01T01:22:54.014Z,29.83
2019-03-01T01:26:16.477Z,29.03
2019-03-01T01:29:38.901Z,30.40
2019-03-01T01:33:01.574Z,30.33
2019-03-01T01:36:24.026Z,30.27
2019-03-01T01:39:46.489Z,32.40
2019-03-01T01:43:08.561Z,31.87
2019-03-01T01:46:30.995Z,31.97
2019-03-01T01:49:53.401Z,33.13
2019-03-01T01:53:16.912Z,31.77
2019-03-01T01:56:39.382Z,31.20
2019-03-01T02:00:02.152Z,30.83
2019-03-01T02:03:24.533Z,33.03
2019-03-01T02:06:47.090Z,29.60
2019-03-01T02:10:09.732Z,30.43
2019-03-01T02:13:32.505Z,32.20
2019-03-01T02:16:55.292Z,31.53
2019-03-01T02:20:18.043Z,32.43
2019-03-01T02:23:41.101Z,32.50
2019-03-01T02:27:27.198Z,31.17
2019-03-01T02:30:49.953Z,30.93
2019-03-01T02:34:12.336Z,31.30
2019-03-01T02:37:34.649Z,33.00
2019-03-01T02:40:57.021Z,30.03
2019-03-01T02:44:19.181Z,30.70
2019-03-01T02:47:41.905Z,31.90
2019-03-01T02:51:04.271Z,30.67
2019-03-01T02:54:26.431Z,29.63
2019-03-01T02:57:48.923Z,30.60
2019-03-01T03:01:11.313Z,29.57
2019-03-01T03:04:33.443Z,29.37
2019-03-01T03:08:00.746Z,29.90
2019-03-01T03:11:23.229Z,28.37
2019-03-01T03:14:45.433Z,30.33
2019-03-01T03:18:07.982Z,28.00
2019-03-01T03:21:30.526Z,28.50
2019-03-01T03:24:53.279Z,28.73
2019-03-01T03:28:15.750Z,30.27
2019-03-01T03:31:38.390Z,31.37
2019-03-01T03:35:00.748Z,30.43
2019-03-01T03:38:23.432Z,30.53
2019-03-01T03:41:45.990Z,30.17
2019-03-01T03:45:09.269Z,29.97
2019-03-01T03:48:32.041Z,30.33
2019-03-01T03:51:55.015Z,28.13
2019-03-01T03:55:18.479Z,30.10
2019-03-01T03:58:41.093Z,29.40
2019-03-01T04:02:03.644Z,30.10
2019-03-01T04:05:26.634Z,29.80
2019-03-01T04:08:48.972Z,29.63
2019-03-01T04:12:11.670Z,30.40
2019-03-01T04:15:34.282Z,28.57
2019-03-01T04:18:57.133Z,30.03
2019-03-01T04:22:19.957Z,30.60
2019-03-01T04:25:42.171Z,29.23
2019-03-01T04:29:04.577Z,29.80
2019-03-01T04:32:27.220Z,30.30
2019-03-01T04:35:49.900Z,30.37
2019-03-01T04:39:12.302Z,31.17
2019-03-01T04:42:34.670Z,30.03
2019-03-01T04:45:57.322Z,30.33
2019-03-01T04:49:19.761Z,31.03
2019-03-01T04:52:42.777Z,29.50
2019-03-01T04:56:05.263Z,29.50
2019-03-01T04:59:27.861Z,28.13
2019-03-01T05:02:50.312Z,30.13
2019-03-01T05:06:12.879Z,29.27
2019-03-01T05:09:35.009Z,29.80
2019-03-01T05:12:57.803Z,28.73
2019-03-01T05:16:20.299Z,29.97
2019-03-01T05:19:42.786Z,30.73
2019-03-01T05:23:05.290Z,34.40
2019-03-01T05:26:28.052Z,35.63
2019-03-01T05:29:50.605Z,38.03
2019-03-01T05:33:12.844Z,41.03
2019-03-01T05:36:35.530Z,44.00
2019-03-01T05:39:57.973Z,41.07
2019-03-01T05:43:20.891Z,41.90
2019-03-01T05:46:43.599Z,40.33
2019-03-01T05:50:07.139Z,40.87
2019-03-01T05:53:29.587Z,42.13
2019-03-01T05:56:52.553Z,43.33
2019-03-01T06:00:16.478Z,43.33
2019-03-01T06:03:56.002Z,43.10
2019-03-01T06:07:42.066Z,45.00
2019-03-01T06:11:41.044Z,42.23
2019-03-01T06:15:30.507Z,42.53
2019-03-01T06:19:33.447Z,38.47
2019-03-01T06:23:17.372Z,45.07
2019-03-01T06:27:03.780Z,45.77
2019-03-01T06:31:02.918Z,45.47
2019-03-01T06:35:16.070Z,42.90
2019-03-01T06:39:36.885Z,44.10
2019-03-01T06:43:29.788Z,47.07
2019-03-01T06:47:03.170Z,47.17
2019-03-01T06:50:39.103Z,44.57
2019-03-01T06:54:01.545Z,44.87
2019-03-01T06:57:24.454Z,48.23
2019-03-01T07:00:50.398Z,47.10
2019-03-01T07:04:19.408Z,48.87
2019-03-01T07:07:42.034Z,45.67
2019-03-01T07:11:05.036Z,46.50
2019-03-01T07:14:27.325Z,45.67
2019-03-01T07:17:49.988Z,46.33
2019-03-01T07:21:12.281Z,46.83
2019-03-01T07:24:35.019Z,48.67
2019-03-01T07:27:57.184Z,48.90
2019-03-01T07:31:19.954Z,50.63
2019-03-01T07:34:42.663Z,52.00
2019-03-01T07:38:05.128Z,53.20
2019-03-01T07:41:27.584Z,53.03
2019-03-01T07:44:50.042Z,55.80
2019-03-01T07:48:12.876Z,51.00
2019-03-01T07:51:37.793Z,52.00
2019-03-01T07:55:00.365Z,54.00
2019-03-01T07:58:25.630Z,56.80
2019-03-01T08:01:46.946Z,58.40
2019-03-01T08:05:10.858Z,56.23
2019-03-01T08:08:34.765Z,56.03
2019-03-01T08:11:57.269Z,56.63
2019-03-01T08:15:19.885Z,58.33
2019-03-01T08:18:44.309Z,62.57
2019-03-01T08:22:06.185Z,64.27
2019-03-01T08:25:28.905Z,63.90
2019-03-01T08:28:54.748Z,64.77
2019-03-01T08:32:15.470Z,62.50
2019-03-01T08:35:38.215Z,64.03
2019-03-01T08:39:04.650Z,65.23
2019-03-01T08:42:24.909Z,66.00
2019-03-01T08:45:47.273Z,62.77
2019-03-01T08:49:10.522Z,61.33
2019-03-01T08:52:37.224Z,63.73
2019-03-01T08:55:58.365Z,61.43
2019-03-01T08:59:20.905Z,64.07
2019-03-01T09:02:43.825Z,60.27
2019-03-01T09:06:06.483Z,63.00
2019-03-01T09:09:29.018Z,60.33
2019-03-01T09:12:51.119Z,62.37
2019-03-01T09:16:13.605Z,60.27
2019-03-01T09:19:36.034Z,61.00
2019-03-01T09:22:58.187Z,64.07
2019-03-01T09:26:20.776Z,65.40
2019-03-01T09:29:43.438Z,69.33
2019-03-01T09:33:05.981Z,69.60
2019-03-01T09:36:35.160Z,65.60
2019-03-01T09:40:05.248Z,66.23
2019-03-01T09:43:24.776Z,66.87
2019-03-01T09:46:45.501Z,63.00
2019-03-01T09:50:08.333Z,71.40
2019-03-01T09:53:34.025Z,64.10
2019-03-01T09:56:54.699Z,64.20
2019-03-01T10:00:18.968Z,55.00
2019-03-01T10:03:41.045Z,56.10
2019-03-01T10:07:03.448Z,50.63
2019-03-01T10:10:27.552Z,50.50
2019-03-01T10:13:49.874Z,51.17
2019-03-01T10:17:12.420Z,51.97
2019-03-01T10:20:34.808Z,51.90
2019-03-01T10:23:58.336Z,57.40
2019-03-01T10:27:20.856Z,57.13
2019-03-01T10:30:43.280Z,56.73
2019-03-01T10:34:05.897Z,56.87
2019-03-01T10:37:28.721Z,56.53
2019-03-01T10:40:51.234Z,52.10
2019-03-01T10:44:14.099Z,49.17
2019-03-01T10:47:36.554Z,50.77
2019-03-01T10:53:58.208Z,49.20
2019-03-01T10:57:20.754Z,49.03
2019-03-01T11:00:43.126Z,46.00
2019-03-01T11:04:05.600Z,48.47
2019-03-01T11:07:28.237Z,47.80
2019-03-01T11:10:50.717Z,39.40
2019-03-01T11:14:13.087Z,43.77
2019-03-01T11:17:35.775Z,45.57
2019-03-01T11:21:02.172Z,42.13
2019-03-01T11:24:24.861Z,44.63
2019-03-01T11:27:47.279Z,44.57
2019-03-01T11:31:09.743Z,45.50
2019-03-01T11:34:32.166Z,49.80
2019-03-01T11:37:55.007Z,48.13
2019-03-01T11:41:17.608Z,45.53
2019-03-01T11:44:40.011Z,47.87
2019-03-01T11:48:02.329Z,49.07
2019-03-01T11:51:24.400Z,46.37
2019-03-01T11:54:46.931Z,44.13
2019-03-01T11:58:09.357Z,50.83
2019-03-01T12:01:32.089Z,46.77
2019-03-01T12:04:54.981Z,53.20
2019-03-01T12:08:17.733Z,44.77
2019-03-01T12:11:40.176Z,46.63
2019-03-01T12:15:02.601Z,48.97
2019-03-01T12:18:25.005Z,53.33
2019-03-01T12:21:47.577Z,48.13
2019-03-01T12:25:10.546Z,43.33
2019-03-01T12:28:33.716Z,39.73
2019-03-01T12:31:56.296Z,34.80
2019-03-01T12:35:19.185Z,40.13
2019-03-01T12:38:41.833Z,39.97
2019-03-01T12:42:04.685Z,37.27
2019-03-01T12:45:27.514Z,36.80
2019-03-01T12:48:50.424Z,38.67
2019-03-01T12:54:08.540Z,42.83
2019-03-01T12:57:31.108Z,39.27
2019-03-01T13:00:53.606Z,38.23
2019-03-01T13:04:18.585Z,34.93
2019-03-01T13:07:40.983Z,31.87
2019-03-01T13:11:03.829Z,28.33
2019-03-01T13:14:26.390Z,33.50
2019-03-01T13:17:49.981Z,34.23
2019-03-01T13:21:13.586Z,29.57
2019-03-01T13:24:36.181Z,28.20
2019-03-01T13:27:58.851Z,19.97
2019-03-01T13:31:21.738Z,22.00
2019-03-01T13:34:45.813Z,22.90
2019-03-01T13:38:08.643Z,18.10
2019-03-01T13:41:34.013Z,18.23
2019-03-01T13:44:55.454Z,18.27
2019-03-01T13:48:19.011Z,16.53
2019-03-01T13:51:42.444Z,12.83
2019-03-01T13:55:04.896Z,16.67
2019-03-01T13:58:27.817Z,18.47
2019-03-01T14:01:50.353Z,16.80
2019-03-01T14:05:16.267Z,16.57
2019-03-01T14:08:37.795Z,16.57
2019-03-01T14:12:00.395Z,16.10
2019-03-01T14:15:22.915Z,13.30
2019-03-01T14:18:45.434Z,13.33
2019-03-01T14:22:10.691Z,13.37
2019-03-01T14:25:32.482Z,13.83
2019-03-01T14:28:54.725Z,14.63
2019-03-01T14:32:20.836Z,12.67
2019-03-01T14:35:41.681Z,11.77
2019-03-01T14:39:07.886Z,12.47
2019-03-01T14:42:29.930Z,9.83
2019-03-01T14:45:52.566Z,11.27
2019-03-01T14:49:15.115Z,9.20
2019-03-01T14:52:37.337Z,9.63
2019-03-01T14:56:16.737Z,10.73
2019-03-01T15:00:02.450Z,11.13
2019-03-01T15:03:35.575Z,11.10
2019-03-01T15:06:58.401Z,11.47
2019-03-01T15:10:20.805Z,10.70
2019-03-01T15:13:43.335Z,10.83
2019-03-01T15:17:06.401Z,10.70
2019-03-01T15:20:28.891Z,9.17
2019-03-01T15:23:51.806Z,9.10
2019-03-01T15:27:14.370Z,8.87
2019-03-01T15:30:36.870Z,8.97
2019-03-01T15:33:59.780Z,14.73
2019-03-01T15:37:22.425Z,11.83
2019-03-01T15:40:45.061Z,8.03
2019-03-01T15:44:07.741Z,8.77
